createdAt,value
2023-02-14T00:00:06.637Z,98682.56
2023-02-14T00:02:33.481Z,98682.59
2023-02-14T00:05:01.149Z,98667.34
2023-02-14T00:07:28.365Z,98662.97
2023-02-14T00:09:55.901Z,98680.88
2023-02-14T00:12:23.339Z,98685.19
2023-02-14T00:15:25.972Z,98662.13
2023-02-14T00:17:54.997Z,98680.84
2023-02-14T00:20:23.286Z,98684.22
2023-02-14T00:22:50.727Z,98676.47
2023-02-14T00:25:18.535Z,98671.44
2023-02-14T00:27:45.999Z,98640.59
2023-02-14T00:30:14.392Z,98669.69
2023-02-14T00:32:44.671Z,98668.88
2023-02-14T00:35:11.697Z,98658.59
2023-02-14T00:37:39.429Z,98655.06
2023-02-14T00:40:09.594Z,98660.16
2023-02-14T00:42:39.785Z,98650.78
2023-02-14T00:45:07.059Z,98663.63
2023-02-14T00:47:34.214Z,98654.16
2023-02-14T00:50:03.126Z,98666.06
2023-02-14T00:52:31.251Z,98648.94
2023-02-14T00:54:58.170Z,98642.19
2023-02-14T00:57:25.100Z,98641.38
2023-02-14T00:59:52.012Z,98647.31
2023-02-14T01:02:19.340Z,98623.41
2023-02-14T01:04:46.244Z,98629.47
2023-02-14T01:07:13.188Z,98635.31
2023-02-14T01:09:40.457Z,98640.56
2023-02-14T01:12:07.651Z,98645.78
2023-02-14T01:14:36.692Z,98614.22
2023-02-14T01:17:03.836Z,98626.94
2023-02-14T01:19:30.968Z,98606.59
2023-02-14T01:21:58.122Z,98609.19
2023-02-14T01:24:26.683Z,98627.91
2023-02-14T01:27:00.976Z,98612.50
2023-02-14T01:29:34.457Z,98615.00
2023-02-14T01:32:07.356Z,98589.31
2023-02-14T01:34:34.620Z,98593.63
2023-02-14T01:37:01.808Z,98576.41
2023-02-14T01:39:28.866Z,98604.53
2023-02-14T01:41:56.806Z,98607.91
2023-02-14T01:44:30.094Z,98607.84
2023-02-14T01:46:58.783Z,98601.16
2023-02-14T01:49:37.881Z,98611.41
2023-02-14T01:52:14.451Z,98613.06
2023-02-14T01:54:54.433Z,98600.25
2023-02-14T01:57:58.870Z,98596.03
2023-02-14T02:01:00.224Z,98566.16
2023-02-14T02:03:42.645Z,98551.53
2023-02-14T02:06:22.477Z,98551.66
2023-02-14T02:09:18.380Z,98527.91
2023-02-14T02:11:45.693Z,98528.84
2023-02-14T02:14:16.373Z,98544.28
2023-02-14T02:17:10.925Z,98554.75
2023-02-14T02:19:59.881Z,98557.31
2023-02-14T02:22:51.490Z,98535.88
2023-02-14T02:25:37.275Z,98537.56
2023-02-14T02:28:03.970Z,98540.19
2023-02-14T02:30:43.282Z,98528.97
2023-02-14T02:33:33.080Z,98533.41
2023-02-14T02:36:16.313Z,98520.22
2023-02-14T02:39:02.791Z,98515.88
2023-02-14T02:41:38.521Z,98512.38
2023-02-14T02:44:11.614Z,98520.19
2023-02-14T02:46:54.076Z,98505.59
2023-02-14T02:49:52.900Z,98508.94
2023-02-14T02:52:50.411Z,98507.31
2023-02-14T02:55:56.065Z,98519.22
2023-02-14T02:58:27.500Z,98517.69
2023-02-14T03:00:55.437Z,98488.69
2023-02-14T03:03:43.217Z,98521.25
2023-02-14T03:06:10.413Z,98505.03
2023-02-14T03:08:37.244Z,98504.13
2023-02-14T03:11:05.535Z,98511.13
2023-02-14T03:13:54.473Z,98510.28
2023-02-14T03:16:27.172Z,98499.13
2023-02-14T03:19:15.443Z,98487.09
2023-02-14T03:21:52.229Z,98489.66
2023-02-14T03:24:46.506Z,98494.09
2023-02-14T03:27:27.774Z,98468.34
2023-02-14T03:30:08.944Z,98490.56
2023-02-14T03:33:02.354Z,98497.41
2023-02-14T03:35:37.649Z,98493.25
2023-02-14T03:38:11.828Z,98473.69
2023-02-14T03:40:58.489Z,98487.16
2023-02-14T03:43:32.470Z,98473.41
2023-02-14T03:46:07.084Z,98460.50
2023-02-14T03:48:36.294Z,98454.53
2023-02-14T03:51:05.662Z,98454.50
2023-02-14T03:53:36.891Z,98457.81
2023-02-14T04:00:18.264Z,98451.78
2023-02-14T04:03:19.257Z,98447.44
2023-02-14T04:05:52.592Z,98453.31
2023-02-14T04:11:14.180Z,98423.38
2023-02-14T04:13:42.078Z,98433.66
2023-02-14T04:16:09.634Z,98425.06
2023-02-14T04:18:55.032Z,98413.34
2023-02-14T04:21:22.097Z,98420.09
2023-02-14T04:23:49.350Z,98414.09
2023-02-14T04:26:16.972Z,98419.31
2023-02-14T04:28:44.012Z,98421.75
2023-02-14T04:31:11.716Z,98404.72
2023-02-14T04:33:39.570Z,98389.44
2023-02-14T04:36:10.004Z,98421.16
2023-02-14T04:38:37.294Z,98411.81
2023-02-14T04:43:49.416Z,98420.22
2023-02-14T04:46:17.226Z,98423.66
2023-02-14T04:48:44.451Z,98428.66
2023-02-14T04:51:11.737Z,98398.06
2023-02-14T04:53:54.156Z,98428.72
2023-02-14T04:56:21.483Z,98422.75
2023-02-14T04:58:50.096Z,98419.28
2023-02-14T05:01:17.202Z,98401.28
2023-02-14T05:03:44.674Z,98411.59
2023-02-14T05:06:11.881Z,98428.81
2023-02-14T05:08:38.853Z,98423.88
2023-02-14T05:11:05.919Z,98437.50
2023-02-14T05:13:33.079Z,98451.25
2023-02-14T05:16:00.187Z,98425.69
2023-02-14T05:18:27.908Z,98429.25
2023-02-14T05:20:55.618Z,98410.47
2023-02-14T05:23:22.864Z,98412.16
2023-02-14T05:25:51.716Z,98414.72
2023-02-14T05:28:22.452Z,98420.72
2023-02-14T05:30:51.807Z,98436.06
2023-02-14T05:33:19.111Z,98447.06
2023-02-14T05:35:46.025Z,98438.50
2023-02-14T05:38:14.246Z,98444.56
2023-02-14T05:40:41.859Z,98440.25
2023-02-14T05:43:08.961Z,98446.97
2023-02-14T05:45:36.300Z,98446.00
2023-02-14T05:48:03.097Z,98448.50
2023-02-14T05:50:30.158Z,98445.03
2023-02-14T05:52:57.095Z,98456.94
2023-02-14T05:55:25.839Z,98455.19
2023-02-14T05:57:52.677Z,98454.34
2023-02-14T06:00:20.184Z,98459.44
2023-02-14T06:02:47.049Z,98454.31
2023-02-14T06:05:15.402Z,98447.38
2023-02-14T06:07:43.775Z,98456.72
2023-02-14T06:10:11.123Z,98461.88
2023-02-14T06:12:38.524Z,98470.34
2023-02-14T06:15:05.913Z,98455.75
2023-02-14T06:17:32.814Z,98460.84
2023-02-14T06:19:59.534Z,98465.06
2023-02-14T06:22:26.508Z,98462.38
2023-02-14T06:24:53.484Z,98455.44
2023-02-14T06:27:20.250Z,98452.56
2023-02-14T06:29:47.102Z,98460.16
2023-02-14T06:32:14.012Z,98472.78
2023-02-14T06:34:41.078Z,98466.69
2023-02-14T06:37:08.380Z,98456.44
2023-02-14T06:39:35.295Z,98468.34
2023-02-14T06:42:02.057Z,98461.25
2023-02-14T06:44:28.949Z,98457.69
2023-02-14T06:46:55.722Z,98471.19
2023-02-14T06:49:22.612Z,98473.50
2023-02-14T06:51:49.687Z,98472.47
2023-02-14T06:54:16.579Z,98469.59
2023-02-14T06:56:43.320Z,98473.75
2023-02-14T06:59:10.029Z,98474.41
2023-02-14T07:01:37.146Z,98477.63
2023-02-14T07:04:04.009Z,98467.75
2023-02-14T07:06:31.245Z,98472.66
2023-02-14T07:08:58.019Z,98483.50
2023-02-14T07:11:24.837Z,98471.22
2023-02-14T07:13:51.726Z,98470.59
2023-02-14T07:16:19.055Z,98476.22
2023-02-14T07:18:45.993Z,98479.19
2023-02-14T07:21:12.818Z,98472.75
2023-02-14T07:23:40.296Z,98464.78
2023-02-14T07:26:07.450Z,98473.09
2023-02-14T07:28:34.328Z,98462.38
2023-02-14T07:31:01.660Z,98476.38
2023-02-14T07:33:29.176Z,98487.09
2023-02-14T07:35:59.583Z,98480.78
2023-02-14T07:38:26.780Z,98476.28
2023-02-14T07:40:55.212Z,98485.25
2023-02-14T07:43:22.093Z,98483.16
2023-02-14T07:45:48.987Z,98488.63
2023-02-14T07:48:15.939Z,98486.53
2023-02-14T07:50:43.043Z,98482.84
2023-02-14T07:53:10.357Z,98495.28
2023-02-14T07:55:37.349Z,98489.25
2023-02-14T07:58:04.591Z,98486.13
2023-02-14T08:00:31.840Z,98475.56
2023-02-14T08:02:58.663Z,98479.66
2023-02-14T08:05:25.543Z,98481.81
2023-02-14T08:07:52.579Z,98484.31
2023-02-14T08:10:19.631Z,98490.00
2023-02-14T08:13:01.555Z,98482.91
2023-02-14T08:15:53.021Z,98475.81
2023-02-14T08:18:23.264Z,98474.66
2023-02-14T08:20:50.472Z,98483.09
2023-02-14T08:23:18.717Z,98474.28
2023-02-14T08:25:46.567Z,98468.72
2023-02-14T08:28:17.045Z,98468.31
2023-02-14T08:30:45.470Z,98464.47
2023-02-14T08:33:12.652Z,98461.81
2023-02-14T08:35:39.789Z,98467.50
2023-02-14T08:38:06.881Z,98462.13
2023-02-14T08:40:36.415Z,98462.06
2023-02-14T08:43:07.534Z,98454.84
2023-02-14T08:45:34.784Z,98451.31
2023-02-14T08:48:04.845Z,98449.53
2023-02-14T08:50:31.981Z,98448.84
2023-02-14T08:52:58.778Z,98452.69
2023-02-14T08:55:26.218Z,98443.84
2023-02-14T08:57:56.116Z,98450.25
2023-02-14T09:00:23.053Z,98456.09
2023-02-14T09:02:53.627Z,98456.94
2023-02-14T09:05:21.600Z,98450.38
2023-02-14T09:07:48.318Z,98458.94
2023-02-14T09:10:15.155Z,98453.84
2023-02-14T09:12:45.556Z,98440.09
2023-02-14T09:15:13.067Z,98440.19
2023-02-14T09:17:40.529Z,98444.16
2023-02-14T09:20:10.108Z,98440.81
2023-02-14T09:22:37.401Z,98441.41
2023-02-14T09:25:05.218Z,98421.75
2023-02-14T09:27:34.598Z,98423.97
2023-02-14T09:30:01.869Z,98420.41
2023-02-14T09:32:29.405Z,98420.28
2023-02-14T09:34:56.806Z,98418.00
2023-02-14T09:37:45.070Z,98411.91
2023-02-14T09:40:17.466Z,98422.50
2023-02-14T09:42:54.594Z,98426.22
2023-02-14T09:45:30.234Z,98424.25
2023-02-14T09:48:03.052Z,98423.50
2023-02-14T09:50:30.673Z,98425.41
2023-02-14T09:53:01.945Z,98409.34
2023-02-14T09:55:42.455Z,98433.41
2023-02-14T09:58:19.882Z,98423.13
2023-02-14T10:00:54.495Z,98422.28
2023-02-14T10:03:53.009Z,98420.09
2023-02-14T10:06:22.881Z,98406.13
2023-02-14T10:09:11.487Z,98410.66
2023-02-14T10:11:40.190Z,98408.78
2023-02-14T10:14:16.278Z,98399.75
2023-02-14T10:16:46.502Z,98415.72
2023-02-14T10:19:28.556Z,98412.44
2023-02-14T10:22:00.975Z,98413.16
2023-02-14T10:24:40.481Z,98421.13
2023-02-14T10:27:15.909Z,98411.72
2023-02-14T10:29:42.968Z,98405.16
2023-02-14T10:32:19.709Z,98397.66
2023-02-14T10:34:49.335Z,98411.44
2023-02-14T10:37:26.186Z,98408.84
2023-02-14T10:40:34.652Z,98412.44
2023-02-14T10:43:23.714Z,98413.09
2023-02-14T10:46:14.016Z,98409.56
2023-02-14T10:49:18.003Z,98407.56
2023-02-14T10:52:01.311Z,98409.31
2023-02-14T10:54:40.123Z,98400.59
2023-02-14T10:57:29.581Z,98420.75
2023-02-14T11:00:22.292Z,98409.88
2023-02-14T11:02:54.412Z,98411.63
2023-02-14T11:05:47.173Z,98399.81
2023-02-14T11:08:30.473Z,98405.81
2023-02-14T11:11:24.034Z,98406.16
2023-02-14T11:13:51.850Z,98401.97
2023-02-14T11:16:30.518Z,98390.69
2023-02-14T11:19:22.868Z,98372.09
2023-02-14T11:21:52.179Z,98372.94
2023-02-14T11:24:22.084Z,98368.44
2023-02-14T11:26:53.380Z,98357.16
2023-02-14T11:29:33.751Z,98366.38
2023-02-14T11:32:26.095Z,98364.44
2023-02-14T11:35:16.255Z,98354.28
2023-02-14T11:38:12.589Z,98310.19
2023-02-14T11:40:39.712Z,98341.00
2023-02-14T11:43:21.481Z,98339.59
2023-02-14T11:45:50.299Z,98313.13
2023-02-14T11:48:48.856Z,98311.19
2023-02-14T11:51:23.686Z,98314.41
2023-02-14T11:53:56.551Z,98341.78
2023-02-14T11:56:52.367Z,98317.06
2023-02-14T11:59:43.108Z,98323.31
2023-02-14T12:02:28.844Z,98321.06
2023-02-14T12:05:21.004Z,98301.84
2023-02-14T12:08:02.109Z,98308.78
2023-02-14T12:10:43.457Z,98321.50
2023-02-14T12:13:10.340Z,98321.19
2023-02-14T12:15:52.957Z,98323.81
2023-02-14T12:18:35.126Z,98315.06
2023-02-14T12:21:13.221Z,98314.31
2023-02-14T12:23:49.380Z,98319.50
2023-02-14T12:35:22.872Z,98285.47
2023-02-14T12:46:04.161Z,98319.91
2023-02-14T12:48:49.070Z,98309.59
2023-02-14T12:51:31.407Z,98307.91
2023-02-14T12:54:31.126Z,98293.25
2023-02-14T12:57:10.899Z,98309.25
2023-02-14T13:00:05.588Z,98305.72
2023-02-14T13:02:50.643Z,98316.91
2023-02-14T13:05:41.980Z,98312.69
2023-02-14T13:08:30.730Z,98309.25
2023-02-14T13:11:18.536Z,98309.50
2023-02-14T13:14:06.782Z,98313.03
2023-02-14T13:17:11.739Z,98289.72
2023-02-14T13:20:17.454Z,98315.50
2023-02-14T13:22:45.398Z,98303.97
2023-02-14T13:25:34.280Z,98309.94
2023-02-14T13:28:12.017Z,98299.22
2023-02-14T13:30:41.691Z,98286.34
2023-02-14T13:33:27.194Z,98300.56
2023-02-14T13:36:03.643Z,98291.84
2023-02-14T13:38:34.125Z,98291.69
2023-02-14T13:41:02.855Z,98287.53
2023-02-14T13:43:51.447Z,98292.44
2023-02-14T13:46:21.362Z,98285.28
2023-02-14T13:49:22.217Z,98270.22
2023-02-14T13:51:51.871Z,98275.16
2023-02-14T13:54:47.489Z,98287.81
2023-02-14T13:57:31.829Z,98289.06
2023-02-14T14:00:19.892Z,98272.34
2023-02-14T14:02:49.944Z,98266.75
2023-02-14T14:05:40.738Z,98270.78
2023-02-14T14:08:23.528Z,98271.75
2023-02-14T14:10:56.101Z,98272.63
2023-02-14T14:13:48.268Z,98272.47
2023-02-14T14:16:24.404Z,98262.06
2023-02-14T14:18:55.809Z,98246.09
2023-02-14T14:21:27.268Z,98263.66
2023-02-14T14:24:23.453Z,98261.81
2023-02-14T14:27:38.899Z,98258.56
2023-02-14T14:30:15.825Z,98255.75
2023-02-14T14:32:45.557Z,98268.84
2023-02-14T14:35:26.188Z,98247.94
2023-02-14T14:37:57.387Z,98269.09
2023-02-14T14:40:25.868Z,98237.44
2023-02-14T14:42:54.135Z,98253.75
2023-02-14T14:45:29.236Z,98235.59
2023-02-14T14:47:58.950Z,98232.34
2023-02-14T14:50:28.928Z,98252.75
2023-02-14T14:53:35.376Z,98250.19
2023-02-14T14:56:02.780Z,98253.00
2023-02-14T14:58:42.194Z,98251.44
2023-02-14T15:01:21.419Z,98266.09
2023-02-14T15:03:48.652Z,98259.25
2023-02-14T15:06:55.087Z,98253.00
2023-02-14T15:09:29.141Z,98257.56
2023-02-14T15:12:16.547Z,98248.34
2023-02-14T15:14:51.689Z,98240.72
2023-02-14T15:17:21.881Z,98227.94
2023-02-14T15:20:05.941Z,98252.50
2023-02-14T15:22:45.017Z,98244.94
2023-02-14T15:25:19.011Z,98256.78
2023-02-14T15:27:48.662Z,98255.84
2023-02-14T15:30:34.305Z,98261.91
2023-02-14T15:33:03.927Z,98256.06
2023-02-14T15:35:42.766Z,98256.25
2023-02-14T15:38:12.273Z,98252.63
2023-02-14T15:40:40.694Z,98259.28
2023-02-14T15:43:22.041Z,98259.28
2023-02-14T15:45:53.588Z,98264.56
2023-02-14T15:48:29.495Z,98248.66
2023-02-14T15:51:00.140Z,98267.63
2023-02-14T15:53:42.417Z,98263.25
2023-02-14T15:56:38.905Z,98270.66
2023-02-14T15:59:36.544Z,98264.13
2023-02-14T16:09:29.093Z,98269.94
2023-02-14T16:11:56.422Z,98259.19
2023-02-14T16:14:35.362Z,98275.56
2023-02-14T16:17:12.007Z,98279.63
2023-02-14T16:19:44.077Z,98277.19
2023-02-14T16:22:26.025Z,98288.28
2023-02-14T16:24:53.280Z,98298.75
2023-02-14T16:27:20.207Z,98297.94
2023-02-14T16:29:47.570Z,98291.19
2023-02-14T16:32:21.258Z,98284.13
2023-02-14T16:34:49.504Z,98282.63
2023-02-14T17:15:38.281Z,98330.53
2023-02-14T17:18:15.016Z,98321.88
2023-02-14T17:20:42.440Z,98334.59
2023-02-14T17:23:10.142Z,98334.59
2023-02-14T17:25:37.430Z,98341.38
2023-02-14T17:28:04.527Z,98340.53
2023-02-14T17:30:31.785Z,98333.69
2023-02-14T17:32:59.039Z,98327.19
2023-02-14T17:35:26.360Z,98327.28
2023-02-14T17:37:53.234Z,98327.81
2023-02-14T17:40:20.235Z,98333.00
2023-02-14T17:42:47.464Z,98331.44
2023-02-14T17:45:15.530Z,98338.94
2023-02-14T17:47:43.620Z,98328.78
2023-02-14T17:50:10.861Z,98326.34
2023-02-14T17:52:38.481Z,98304.44
2023-02-14T17:55:06.825Z,98328.44
2023-02-14T17:57:34.004Z,98299.00
2023-02-14T18:00:05.988Z,98327.16
2023-02-14T18:02:33.463Z,98318.69
2023-02-14T18:05:00.640Z,98329.91
2023-02-14T18:07:27.649Z,98346.78
2023-02-14T18:09:54.645Z,98341.00
2023-02-14T18:12:21.544Z,98358.41
2023-02-14T18:14:48.393Z,98330.75
2023-02-14T18:17:15.748Z,98346.09
2023-02-14T18:19:43.049Z,98338.13
2023-02-14T18:22:10.579Z,98350.66
2023-02-14T18:24:37.952Z,98342.00
2023-02-14T18:27:06.218Z,98340.88
2023-02-14T18:29:33.405Z,98348.47
2023-02-14T18:32:03.790Z,98357.53
2023-02-14T18:34:30.711Z,98351.16
2023-02-14T18:37:02.378Z,98342.47
2023-02-14T18:39:29.555Z,98360.97
2023-02-14T18:42:01.063Z,98357.09
2023-02-14T18:44:29.752Z,98355.22
2023-02-14T18:46:57.543Z,98349.91
2023-02-14T18:49:24.660Z,98353.13
2023-02-14T18:51:52.331Z,98359.75
2023-02-14T18:54:22.662Z,98356.13
2023-02-14T18:56:49.597Z,98339.19
2023-02-14T18:59:17.693Z,98371.69
2023-02-14T19:01:45.930Z,98365.28
2023-02-14T19:04:14.095Z,98366.50
2023-02-14T19:06:42.609Z,98373.28
2023-02-14T19:09:17.781Z,98379.09
2023-02-14T19:11:54.059Z,98370.38
2023-02-14T19:14:23.705Z,98375.47
2023-02-14T19:16:53.571Z,98369.34
2023-02-14T19:19:21.044Z,98379.34
2023-02-14T19:21:48.493Z,98379.47
2023-02-14T19:24:16.730Z,98371.97
2023-02-14T19:26:53.847Z,98371.22
2023-02-14T19:29:22.421Z,98366.88
2023-02-14T19:31:51.422Z,98352.41
2023-02-14T19:34:27.223Z,98376.03
2023-02-14T19:36:57.399Z,98357.69
2023-02-14T19:47:23.380Z,98375.13
2023-02-14T19:53:11.131Z,98397.41
2023-02-14T20:17:47.583Z,98394.63
2023-02-14T20:24:15.583Z,98378.03
2023-02-14T20:29:55.528Z,98372.09
2023-02-14T20:30:00.477Z,98400.66
2023-02-14T20:33:20.412Z,98402.69
2023-02-14T20:39:32.791Z,98384.44
2023-02-14T20:46:40.109Z,98388.66
2023-02-14T20:50:11.537Z,98419.16
2023-02-14T20:52:45.347Z,98406.47
2023-02-14T20:55:24.198Z,98400.94
2023-02-14T20:58:32.969Z,98410.34
2023-02-14T21:01:49.528Z,98427.56
2023-02-14T21:04:26.875Z,98408.38
2023-02-14T21:06:54.918Z,98418.44
2023-02-14T21:09:35.361Z,98431.44
2023-02-14T21:12:09.734Z,98417.19
2023-02-14T21:14:36.917Z,98435.69
2023-02-14T21:17:05.414Z,98421.28
2023-02-14T21:19:32.672Z,98429.84
2023-02-14T21:21:59.760Z,98433.16
2023-02-14T21:24:32.727Z,98439.19
2023-02-14T21:27:02.604Z,98431.56
2023-02-14T21:29:29.435Z,98429.28
2023-02-14T21:31:57.003Z,98440.38
2023-02-14T21:34:23.998Z,98432.03
2023-02-14T21:36:52.221Z,98431.75
2023-02-14T21:39:21.152Z,98418.44
2023-02-14T21:41:48.022Z,98435.44
2023-02-14T21:44:38.208Z,98456.97
2023-02-14T21:47:05.367Z,98447.38
2023-02-14T21:49:54.502Z,98441.38
2023-02-14T21:52:27.784Z,98463.06
2023-02-14T21:54:58.065Z,98444.19
2023-02-14T21:57:24.827Z,98446.75
2023-02-14T21:59:52.273Z,98446.84
2023-02-14T22:02:28.450Z,98444.97
2023-02-14T22:04:55.522Z,98451.22
2023-02-14T22:07:22.742Z,98453.13
2023-02-14T22:09:52.016Z,98454.94
2023-02-14T22:12:19.239Z,98461.72
2023-02-14T22:14:45.989Z,98461.72
2023-02-14T22:17:15.816Z,98460.31
2023-02-14T22:19:46.922Z,98462.78
2023-02-14T22:22:17.176Z,98463.88
2023-02-14T22:24:45.939Z,98452.56
2023-02-14T22:27:12.947Z,98457.09
2023-02-14T22:29:50.040Z,98449.47
2023-02-14T22:32:20.419Z,98448.63
2023-02-14T22:34:47.635Z,98461.38
2023-02-14T22:37:14.712Z,98448.34
2023-02-14T22:39:41.731Z,98452.06
2023-02-14T22:42:10.137Z,98450.47
2023-02-14T22:44:44.509Z,98455.63
2023-02-14T22:47:19.050Z,98461.94
2023-02-14T22:49:48.291Z,98464.50
2023-02-14T22:52:19.892Z,98468.78
2023-02-14T22:54:47.824Z,98467.13
2023-02-14T22:57:14.890Z,98467.81
2023-02-14T22:59:42.091Z,98465.38
2023-02-14T23:02:10.283Z,98462.81
2023-02-14T23:04:37.516Z,98456.22
2023-02-14T23:07:04.553Z,98471.59
2023-02-14T23:09:33.924Z,98470.59
2023-02-14T23:12:01.310Z,98481.13
2023-02-14T23:14:48.225Z,98483.84
2023-02-14T23:17:16.392Z,98475.38
2023-02-14T23:20:02.966Z,98474.47
2023-02-14T23:22:33.706Z,98471.03
2023-02-14T23:25:11.010Z,98485.59
2023-02-14T23:27:44.228Z,98468.84
2023-02-14T23:30:22.616Z,98454.47
2023-02-14T23:42:34.398Z,98490.34
2023-02-14T23:45:44.889Z,98487.75
2023-02-14T23:52:12.614Z,98489.69
